메인 페이지
METAR-TAF:

METAR-TAF

공항 :

포트오브스페인, 트리니다드 섬, 트리니다드 토바고

위도: 10-37N, 경도: 061-21W, 고도: 12m

현재 날씨관측

예보는 59분 전, 18:00시(UTC)에 발표되었습니다.
12kt
온도 26°C
습도 84%
기압 1013 hPa
시정 10km 이상
고도 700ft 상공 구름 조금
약한비, 시계 내 소나기

METAR: TTPP 161800Z 10012KT 9999 -RA VCSH FEW007 26/23 Q1013 NOSIG RMK VCSH ALL QUADS

시각: 14:59 (18:59 UTC)

예보

예보는 2 시간 59분 전, 16:00시(UTC)에 발표되었습니다.
예보 대상 시간: 16일 18시부터 17일 18시까지 (UTC)
동남동10kt
시정: 8000m
고도 1600ft 상공 구름 보통
고도 3600ft 상공 구름 보통
일시적
16일 18시부터 16일 23시까지 (UTC)
동남동15kt, 순간 최대 풍속 30kt
시정: 4000m
고도 1200ft 상공 구름 조금, 타워링 적운.
고도 1300ft 상공 구름 많음
소나기
전환 중
17일 00시부터 17일 02시까지 (UTC)
동남동5kt
시정 10km 이상
고도 1600ft 상공 구름 보통
확률 40% :
일시적
17일 04시부터 17일 18시까지 (UTC)
시정: 6000m
고도 1400ft 상공 구름 보통
소나기
전환 중
17일 12시부터 17일 14시까지 (UTC)
15kt

TAF: TTPP 161600Z 1618/1718 11010KT 8000 SCT016 SCT036 TEMPO 1618/1623 11015G30KT 4000 SHRA FEW012TCU BKN013 BECMG 1700/1702 11005KT 9999 SCT016 PROB40 TEMPO 1704/1718 6000 SHRA SCT014 BECMG 1712/1714 10015KT

4,000개 이상의 공항 관측 자료 및 예보 (METAR 및 TAF 보고).

지도상에서 검색 가능한 기상관측소가 노란 점과 빨간 점으로 표시되어 있습니다.

기상관측소 명을 보려면 표시 위로 마우스를 이동하세요.

날씨 관측과 예보를 보려면 클릭하세요.

지도 변경 : 확대하려면 엑스 표시가 있는 녹색 버튼, 축소하려면 빼기 표시가 있는 녹색 버튼, 다음 페이지의 지도를 보려면 녹색 화살표를 클릭하세요.


METAR-TAF: